Time;durP1;ratioP1;P1;durP2;ratioP2;P2;SDS_P1;SDS_P2;PMS_P1;PMS_P2;Temp;Humidity;BMP_temperature;BMP_pressure;BME280_temperature;BME280_humidity;BME280_pressure;Samples;Min_cycle;Max_cycle;Signal;HPM_P1;HPM_P2
2021/07/25 00:01:42;;;;;;;0.77;0.73;;;18.70;99.90;;;;;;5113307;28;20278;-83
2021/07/25 00:04:07;;;;;;;1.77;1.33;;;18.50;99.90;;;;;;5114994;28;20215;-83
2021/07/25 00:06:33;;;;;;;1.37;0.77;;;18.40;99.90;;;;;;5113353;28;20180;-83
2021/07/25 00:08:58;;;;;;;1.23;0.93;;;18.20;99.90;;;;;;5112787;28;20199;-83
2021/07/25 00:11:24;;;;;;;0.97;0.80;;;18.10;99.90;;;;;;5113889;28;20224;-83
2021/07/25 00:13:52;;;;;;;1.03;0.83;;;18.10;99.90;;;;;;5113395;28;20184;-83
2021/07/25 00:16:19;;;;;;;1.47;0.77;;;18.20;99.90;;;;;;5095907;28;20559;-83
2021/07/25 00:18:45;;;;;;;2.50;0.73;;;18.40;99.90;;;;;;5096036;28;20257;-83
2021/07/25 00:21:10;;;;;;;1.07;0.60;;;18.50;99.90;;;;;;5096113;28;20202;-83
2021/07/25 00:23:37;;;;;;;0.67;0.67;;;18.40;99.90;;;;;;5105557;28;20201;-83
2021/07/25 00:26:04;;;;;;;0.93;0.90;;;18.40;99.90;;;;;;5097547;28;20315;-83
2021/07/25 00:28:33;;;;;;;1.23;1.13;;;18.20;99.90;;;;;;5102858;28;20188;-83
2021/07/25 00:31:03;;;;;;;1.23;0.97;;;18.10;99.90;;;;;;5111141;28;20178;-83
2021/07/25 00:33:32;;;;;;;1.17;0.80;;;18.10;99.90;;;;;;5116473;28;20217;-83
2021/07/25 00:36:03;;;;;;;0.97;0.80;;;18.10;99.90;;;;;;5116040;28;20187;-83
2021/07/25 00:38:29;;;;;;;0.40;0.40;;;18.30;99.90;;;;;;5116012;28;20198;-83
2021/07/25 00:41:16;;;;;;;1.77;0.90;;;18.30;99.90;;;;;;5116630;28;20715;-83
2021/07/25 00:43:44;;;;;;;0.63;0.60;;;18.30;99.90;;;;;;5116318;28;20184;-83
2021/07/25 00:46:11;;;;;;;1.23;0.80;;;18.20;99.90;;;;;;5114695;28;20218;-83
2021/07/25 00:48:37;;;;;;;0.97;0.97;;;18.10;99.90;;;;;;5095702;28;20190;-83
2021/07/25 00:51:04;;;;;;;0.80;0.80;;;18.20;99.90;;;;;;5096647;28;20177;-83
2021/07/25 00:53:33;;;;;;;0.73;0.73;;;18.10;99.90;;;;;;5096529;28;20194;-83
2021/07/25 00:56:00;;;;;;;1.87;1.40;;;17.90;99.90;;;;;;5104833;28;20841;-83
2021/07/25 00:58:26;;;;;;;1.10;0.87;;;17.80;99.90;;;;;;5096839;28;20176;-84
2021/07/25 01:00:52;;;;;;;1.07;1.07;;;17.80;99.90;;;;;;5109890;28;20180;-83
2021/07/25 01:03:26;;;;;;;1.93;1.10;;;17.70;99.90;;;;;;5105850;28;20617;-83
2021/07/25 01:05:58;;;;;;;0.87;0.73;;;17.70;99.90;;;;;;5095339;28;20206;-83
2021/07/25 01:08:44;;;;;;;0.97;0.83;;;17.70;99.90;;;;;;5095822;28;20210;-83
2021/07/25 01:11:12;;;;;;;1.50;0.93;;;17.70;99.90;;;;;;5092369;28;20175;-83
2021/07/25 01:13:40;;;;;;;0.70;0.70;;;17.70;99.90;;;;;;5109513;28;20181;-83
2021/07/25 01:16:07;;;;;;;0.63;0.63;;;17.70;99.90;;;;;;5094181;28;20193;-83
2021/07/25 01:18:43;;;;;;;2.07;1.13;;;17.80;99.90;;;;;;5088347;28;20217;-83
2021/07/25 01:21:08;;;;;;;0.60;0.60;;;17.80;99.90;;;;;;5091071;28;20186;-83
2021/07/25 01:23:34;;;;;;;0.60;0.37;;;17.70;99.90;;;;;;5095914;28;20723;-83
2021/07/25 01:26:01;;;;;;;1.23;0.30;;;17.70;99.90;;;;;;5111850;28;20664;-83
2021/07/25 01:28:32;;;;;;;1.27;0.63;;;17.80;99.90;;;;;;5111197;28;20177;-83
2021/07/25 01:31:00;;;;;;;1.53;0.57;;;18.00;99.90;;;;;;5094826;28;20212;-84
2021/07/25 01:33:30;;;;;;;1.47;1.23;;;18.00;99.90;;;;;;5095683;28;20278;-83
2021/07/25 01:35:59;;;;;;;1.63;1.00;;;18.00;99.90;;;;;;5095120;28;20187;-83
2021/07/25 01:38:26;;;;;;;1.70;1.47;;;17.90;99.90;;;;;;5095137;28;20563;-83
2021/07/25 01:41:03;;;;;;;0.57;0.57;;;17.70;99.90;;;;;;5111127;28;20200;-83
2021/07/25 01:43:30;;;;;;;0.83;0.57;;;17.60;99.90;;;;;;5096207;28;20199;-83
2021/07/25 01:45:56;;;;;;;1.10;1.10;;;17.60;99.90;;;;;;5095586;28;20291;-83
2021/07/25 01:48:21;;;;;;;2.30;0.60;;;17.60;99.90;;;;;;5095096;28;20215;-83
2021/07/25 01:50:47;;;;;;;0.73;0.73;;;17.60;99.90;;;;;;5095958;28;20200;-83
2021/07/25 01:53:15;;;;;;;0.70;0.50;;;17.70;99.90;;;;;;5100379;28;20644;-83
2021/07/25 01:55:41;;;;;;;0.50;0.50;;;17.80;99.90;;;;;;5116242;28;20605;-83
2021/07/25 01:58:07;;;;;;;0.70;0.70;;;18.00;99.90;;;;;;5114619;28;20218;-83
2021/07/25 02:00:32;;;;;;;0.70;0.70;;;18.20;99.90;;;;;;5115417;28;20211;-83
2021/07/25 02:02:58;;;;;;;0.67;0.67;;;18.20;99.90;;;;;;5114491;28;20270;-83
2021/07/25 02:05:23;;;;;;;0.80;0.70;;;18.30;99.90;;;;;;5114061;28;20218;-83
2021/07/25 02:07:49;;;;;;;0.87;0.60;;;18.40;99.90;;;;;;5115244;28;20244;-83
2021/07/25 02:10:14;;;;;;;0.77;0.60;;;18.40;99.90;;;;;;5114384;28;20203;-83
2021/07/25 02:12:40;;;;;;;0.90;0.67;;;18.40;99.90;;;;;;5114310;28;20271;-83
2021/07/25 02:15:05;;;;;;;0.63;0.60;;;18.40;99.90;;;;;;5108589;28;20195;-83
2021/07/25 02:17:31;;;;;;;0.93;0.80;;;18.40;99.90;;;;;;5111994;28;20203;-84
2021/07/25 02:19:57;;;;;;;1.50;0.83;;;18.40;99.90;;;;;;5101817;28;20277;-83
2021/07/25 02:22:22;;;;;;;1.90;0.70;;;18.50;99.90;;;;;;5095461;28;20196;-83
2021/07/25 02:24:48;;;;;;;1.23;0.60;;;18.50;99.90;;;;;;5111269;28;20208;-84
2021/07/25 02:27:13;;;;;;;1.00;0.73;;;18.60;99.90;;;;;;5111123;28;20225;-83
2021/07/25 02:29:39;;;;;;;1.37;1.00;;;18.60;99.90;;;;;;5082796;28;20204;-83
2021/07/25 02:32:05;;;;;;;0.70;0.70;;;18.70;99.90;;;;;;5096173;28;20184;-84
2021/07/25 02:34:30;;;;;;;0.40;0.40;;;18.80;99.90;;;;;;5111994;28;20195;-83
2021/07/25 02:36:56;;;;;;;0.80;0.80;;;18.80;99.90;;;;;;5096449;28;20590;-83
2021/07/25 02:39:21;;;;;;;0.37;0.33;;;18.80;99.90;;;;;;5112555;28;20763;-83
2021/07/25 02:41:47;;;;;;;1.10;1.10;;;18.80;99.90;;;;;;5111784;28;20286;-83
2021/07/25 02:44:13;;;;;;;0.73;0.73;;;18.90;99.90;;;;;;5112273;28;20191;-83
2021/07/25 02:46:38;;;;;;;1.00;1.00;;;18.90;99.90;;;;;;5097121;28;20268;-84
2021/07/25 02:49:04;;;;;;;0.63;0.63;;;18.80;99.90;;;;;;5111443;28;20208;-83
2021/07/25 02:51:29;;;;;;;0.73;0.73;;;18.80;99.90;;;;;;5095170;28;20418;-83
2021/07/25 02:53:55;;;;;;;0.33;0.33;;;18.90;99.90;;;;;;5094062;28;20185;-83
2021/07/25 02:56:21;;;;;;;0.83;0.53;;;18.80;99.90;;;;;;5095255;28;20251;-83
2021/07/25 02:58:46;;;;;;;0.83;0.80;;;18.80;99.90;;;;;;5111029;28;20711;-83
2021/07/25 03:01:13;;;;;;;0.97;0.93;;;18.70;99.90;;;;;;5112139;28;20238;-83
2021/07/25 03:03:39;;;;;;;0.90;0.90;;;18.70;99.90;;;;;;5111083;28;20192;-83
2021/07/25 03:06:05;;;;;;;0.77;0.77;;;18.60;99.90;;;;;;5095475;28;20200;-83
2021/07/25 03:08:30;;;;;;;1.43;1.33;;;18.60;99.90;;;;;;5111238;28;20245;-83
2021/07/25 03:10:56;;;;;;;0.87;0.70;;;18.50;99.90;;;;;;5095509;28;20183;-83
2021/07/25 03:13:22;;;;;;;0.90;0.90;;;18.50;99.90;;;;;;5110954;28;20229;-83
2021/07/25 03:15:47;;;;;;;0.50;0.50;;;18.50;99.90;;;;;;5109891;28;20231;-83
2021/07/25 03:18:13;;;;;;;0.70;0.70;;;18.50;99.90;;;;;;5094362;28;20191;-83
2021/07/25 03:20:38;;;;;;;0.60;0.60;;;18.40;99.90;;;;;;5107296;28;20219;-83
2021/07/25 03:23:04;;;;;;;2.03;0.53;;;18.40;99.90;;;;;;5104038;28;20196;-83
2021/07/25 03:25:30;;;;;;;0.77;0.60;;;18.40;99.90;;;;;;5109936;28;20285;-83
2021/07/25 03:27:55;;;;;;;1.20;1.10;;;18.30;99.90;;;;;;5105347;28;20181;-83
2021/07/25 03:30:21;;;;;;;1.77;0.47;;;18.30;99.90;;;;;;5098170;28;20192;-83
2021/07/25 03:32:46;;;;;;;0.50;0.50;;;18.40;99.90;;;;;;5115139;28;20189;-83
2021/07/25 03:35:12;;;;;;;0.97;0.90;;;18.40;99.90;;;;;;5114852;28;20263;-83
2021/07/25 03:37:41;;;;;;;0.20;0.20;;;18.40;99.90;;;;;;5112710;28;20218;-84
2021/07/25 03:40:08;;;;;;;1.73;0.63;;;18.40;99.90;;;;;;5112895;28;20290;-83
2021/07/25 03:42:34;;;;;;;0.73;0.70;;;18.40;99.90;;;;;;5113778;28;20180;-84
2021/07/25 03:45:00;;;;;;;0.80;0.80;;;18.50;99.90;;;;;;5113500;28;20574;-83
2021/07/25 03:47:25;;;;;;;0.67;0.67;;;18.60;99.90;;;;;;5100297;28;20203;-83
2021/07/25 03:49:51;;;;;;;1.57;1.10;;;18.70;99.90;;;;;;5109630;28;20204;-83
2021/07/25 03:52:16;;;;;;;0.60;0.60;;;18.80;99.90;;;;;;5105260;28;20177;-83
2021/07/25 03:54:42;;;;;;;2.80;1.17;;;18.90;99.90;;;;;;5090947;28;20263;-83
2021/07/25 03:57:09;;;;;;;1.43;1.33;;;19.00;99.90;;;;;;5114082;28;20183;-83
2021/07/25 03:59:36;;;;;;;1.77;1.10;;;19.10;99.90;;;;;;5113030;28;20204;-83
2021/07/25 04:02:01;;;;;;;1.47;1.37;;;19.10;99.90;;;;;;5097710;28;20525;-83
2021/07/25 04:04:27;;;;;;;1.27;1.03;;;19.00;99.90;;;;;;5097243;28;20191;-83
2021/07/25 04:06:52;;;;;;;1.13;1.13;;;19.10;99.90;;;;;;5097744;28;20176;-83
2021/07/25 04:09:18;;;;;;;1.80;1.50;;;19.00;99.90;;;;;;5105792;28;20203;-83
2021/07/25 04:11:43;;;;;;;1.47;1.37;;;19.00;99.90;;;;;;5117324;28;20211;-83
2021/07/25 04:14:09;;;;;;;2.00;0.70;;;19.10;99.90;;;;;;5116500;28;20585;-83
2021/07/25 04:16:35;;;;;;;1.70;1.33;;;19.00;99.90;;;;;;5097148;28;20212;-83
2021/07/25 04:19:00;;;;;;;0.63;0.63;;;19.10;99.90;;;;;;5095795;28;20196;-83
2021/07/25 04:21:26;;;;;;;2.07;1.30;;;19.10;99.90;;;;;;5096302;28;20627;-83
2021/07/25 04:23:52;;;;;;;1.47;1.37;;;19.10;99.90;;;;;;5101203;28;20235;-83
2021/07/25 04:26:17;;;;;;;1.40;1.10;;;19.10;99.90;;;;;;5111231;28;20254;-83
2021/07/25 04:28:43;;;;;;;1.13;0.80;;;19.10;99.90;;;;;;5090330;28;20193;-83
2021/07/25 04:31:09;;;;;;;2.20;1.30;;;19.10;99.90;;;;;;5094286;28;20196;-83
2021/07/25 04:33:35;;;;;;;0.73;0.73;;;19.10;99.90;;;;;;5095542;28;20184;-83
2021/07/25 04:36:10;;;;;;;1.23;0.80;;;19.10;99.90;;;;;;5094173;28;20184;-83
2021/07/25 04:38:36;;;;;;;1.33;1.23;;;19.20;99.90;;;;;;5110647;28;20651;-83
2021/07/25 04:41:03;;;;;;;0.97;0.87;;;19.20;99.90;;;;;;5095240;28;20241;-83
2021/07/25 04:43:30;;;;;;;1.00;0.63;;;19.30;99.90;;;;;;5095405;28;20668;-83
2021/07/25 04:46:21;;;;;;;1.07;0.97;;;19.40;99.90;;;;;;5095030;28;20657;-83
2021/07/25 04:49:02;;;;;;;0.70;0.70;;;19.40;99.90;;;;;;5090071;28;20217;-83
2021/07/25 04:51:30;;;;;;;3.53;1.93;;;19.30;99.90;;;;;;5093905;28;20188;-83
2021/07/25 04:54:04;;;;;;;1.87;0.90;;;19.30;99.90;;;;;;5093621;28;20176;-83
2021/07/25 04:56:31;;;;;;;2.40;0.97;;;19.30;99.90;;;;;;5110681;28;20310;-83
2021/07/25 04:59:04;;;;;;;1.00;1.00;;;19.30;99.90;;;;;;5094614;28;20200;-83
2021/07/25 05:01:35;;;;;;;1.30;1.20;;;19.40;99.90;;;;;;5096904;28;20199;-83
2021/07/25 05:04:03;;;;;;;2.53;1.80;;;19.30;99.90;;;;;;5096130;28;20191;-83
2021/07/25 05:06:31;;;;;;;1.37;0.87;;;19.30;99.90;;;;;;5094591;28;20772;-83
2021/07/25 05:08:57;;;;;;;0.53;0.53;;;19.30;99.90;;;;;;5100404;28;20205;-83
2021/07/25 05:11:42;;;;;;;1.80;0.93;;;19.30;99.90;;;;;;5106362;28;20270;-83
2021/07/25 05:14:18;;;;;;;3.13;1.23;;;19.30;99.90;;;;;;5113923;28;20647;-83
2021/07/25 05:16:49;;;;;;;0.87;0.87;;;19.40;99.90;;;;;;5079604;28;20271;-83
2021/07/25 05:19:28;;;;;;;0.63;0.63;;;19.40;99.90;;;;;;5093226;28;20209;-83
2021/07/25 05:22:09;;;;;;;0.83;0.50;;;19.50;99.90;;;;;;5099747;28;20187;-83
2021/07/25 05:24:43;;;;;;;1.23;0.80;;;19.60;99.90;;;;;;5094203;28;20214;-83
2021/07/25 05:27:18;;;;;;;0.83;0.83;;;19.70;99.90;;;;;;5094398;28;20375;-83
2021/07/25 05:29:46;;;;;;;0.60;0.47;;;19.80;99.90;;;;;;5079877;28;20293;-83
2021/07/25 05:32:12;;;;;;;0.83;0.50;;;20.00;99.90;;;;;;5094201;28;20176;-83
2021/07/25 05:34:37;;;;;;;0.60;0.60;;;20.00;99.90;;;;;;5093075;28;20198;-83
2021/07/25 05:37:03;;;;;;;1.13;1.13;;;20.00;99.90;;;;;;5109696;28;20184;-83
2021/07/25 05:39:29;;;;;;;0.53;0.27;;;20.10;99.90;;;;;;5093695;28;20645;-83
2021/07/25 05:41:54;;;;;;;0.40;0.40;;;20.10;99.90;;;;;;5092908;28;20176;-83
2021/07/25 05:44:20;;;;;;;0.53;0.53;;;20.20;99.90;;;;;;5109913;28;20188;-83
2021/07/25 05:46:46;;;;;;;1.43;1.07;;;20.40;99.90;;;;;;5109798;28;20185;-83
2021/07/25 05:49:11;;;;;;;0.63;0.53;;;20.30;99.90;;;;;;5109506;28;20212;-83
2021/07/25 05:51:37;;;;;;;1.03;0.80;;;20.30;99.90;;;;;;5109587;28;20187;-83
2021/07/25 05:54:02;;;;;;;2.10;0.73;;;20.30;99.90;;;;;;5103001;28;20728;-83
2021/07/25 05:56:28;;;;;;;1.17;1.10;;;20.50;99.90;;;;;;5099509;28;20187;-83
2021/07/25 05:58:53;;;;;;;1.73;0.90;;;20.70;99.90;;;;;;5114020;28;20572;-83
2021/07/25 06:01:19;;;;;;;1.73;1.20;;;20.70;99.90;;;;;;5113170;28;20192;-83
2021/07/25 06:03:44;;;;;;;0.90;0.73;;;20.70;99.90;;;;;;5113246;28;20195;-83
2021/07/25 06:06:10;;;;;;;0.90;0.90;;;20.80;99.90;;;;;;5115018;28;20203;-83
2021/07/25 06:08:36;;;;;;;0.83;0.83;;;20.90;99.90;;;;;;5101421;28;20188;-83
2021/07/25 06:11:01;;;;;;;0.60;0.60;;;21.20;99.90;;;;;;5093856;28;20191;-83
2021/07/25 06:13:27;;;;;;;0.63;0.63;;;21.20;99.90;;;;;;5093304;28;20331;-83
2021/07/25 06:15:52;;;;;;;1.13;0.50;;;21.40;99.90;;;;;;5109136;28;20580;-83
2021/07/25 06:18:18;;;;;;;3.03;0.70;;;21.40;99.90;;;;;;5093090;28;20727;-83
2021/07/25 06:20:43;;;;;;;1.57;0.57;;;21.20;99.90;;;;;;5105306;28;20244;-83
2021/07/25 06:23:11;;;;;;;4.53;0.83;;;21.20;99.90;;;;;;5103918;28;20204;-83
2021/07/25 06:25:37;;;;;;;0.97;0.70;;;21.40;99.90;;;;;;5109252;28;20869;-83
2021/07/25 06:28:04;;;;;;;0.80;0.80;;;21.40;99.90;;;;;;5092872;28;20208;-83
2021/07/25 06:30:31;;;;;;;1.80;1.10;;;21.50;99.90;;;;;;5093361;28;20688;-83
2021/07/25 06:32:58;;;;;;;1.13;0.67;;;21.60;99.90;;;;;;5108905;28;20184;-83
2021/07/25 06:35:26;;;;;;;2.17;1.87;;;21.70;99.90;;;;;;5093202;28;20715;-83
2021/07/25 06:37:52;;;;;;;0.87;0.87;;;21.70;99.90;;;;;;5108660;28;20206;-83
2021/07/25 06:40:18;;;;;;;0.47;0.47;;;21.70;99.90;;;;;;5109212;28;20208;-83
2021/07/25 06:42:43;;;;;;;1.77;1.67;;;21.80;99.90;;;;;;5093130;28;20184;-83
2021/07/25 06:45:10;;;;;;;3.23;0.93;;;21.80;99.90;;;;;;5087622;28;20291;-83
2021/07/25 06:47:35;;;;;;;1.17;1.13;;;21.80;99.90;;;;;;5092453;28;20670;-83
2021/07/25 06:50:01;;;;;;;2.00;1.33;;;21.80;99.90;;;;;;5091922;28;20204;-83
2021/07/25 06:52:27;;;;;;;1.67;1.23;;;21.90;99.90;;;;;;5092826;28;20180;-83
2021/07/25 06:54:52;;;;;;;1.87;1.70;;;21.70;99.90;;;;;;5095389;28;20242;-83
2021/07/25 06:57:18;;;;;;;1.80;0.60;;;21.70;99.90;;;;;;5113420;28;20226;-83
2021/07/25 06:59:43;;;;;;;1.30;1.10;;;21.70;99.90;;;;;;5117948;28;20581;-82
2021/07/25 07:02:09;;;;;;;1.10;0.77;;;21.60;99.90;;;;;;5112026;28;20187;-83
2021/07/25 07:04:34;;;;;;;1.30;0.63;;;21.60;99.90;;;;;;5111731;28;20659;-83
2021/07/25 07:07:00;;;;;;;1.77;0.87;;;21.90;99.90;;;;;;5112042;28;20180;-83
2021/07/25 07:09:25;;;;;;;1.37;1.23;;;22.00;99.90;;;;;;5093355;28;20208;-83
2021/07/25 07:11:51;;;;;;;0.40;0.40;;;22.20;99.90;;;;;;5108555;28;20256;-83
2021/07/25 07:14:16;;;;;;;0.73;0.73;;;22.30;99.90;;;;;;5092497;28;20580;-84
2021/07/25 07:16:42;;;;;;;0.73;0.73;;;22.50;99.90;;;;;;5079154;28;20185;-83
2021/07/25 07:19:07;;;;;;;1.50;0.83;;;22.70;99.90;;;;;;5108090;28;20571;-83
2021/07/25 07:21:33;;;;;;;0.83;0.83;;;22.90;99.90;;;;;;5097650;28;20264;-83
2021/07/25 07:23:58;;;;;;;1.13;1.03;;;23.10;99.90;;;;;;5085090;28;20211;-83
2021/07/25 07:26:24;;;;;;;1.63;1.27;;;23.30;99.90;;;;;;5090951;28;20281;-83
2021/07/25 07:28:50;;;;;;;0.97;0.90;;;23.50;99.90;;;;;;5090068;28;20258;-82
2021/07/25 07:31:15;;;;;;;0.77;0.63;;;23.50;99.90;;;;;;5108254;28;20205;-83
2021/07/25 07:33:41;;;;;;;0.97;0.90;;;23.70;99.90;;;;;;5107858;28;20184;-83
2021/07/25 07:36:07;;;;;;;1.03;1.03;;;23.70;99.90;;;;;;5092434;28;20728;-83
2021/07/25 07:38:32;;;;;;;1.00;0.50;;;23.90;99.90;;;;;;5091493;28;20228;-83
2021/07/25 07:40:58;;;;;;;2.67;1.87;;;24.10;99.90;;;;;;5107873;28;20256;-84
2021/07/25 07:43:23;;;;;;;0.67;0.67;;;24.10;99.90;;;;;;5107588;28;20183;-83
2021/07/25 07:45:50;;;;;;;1.77;1.30;;;24.00;99.90;;;;;;5101144;28;20966;-83
2021/07/25 07:48:18;;;;;;;1.03;1.00;;;24.20;99.90;;;;;;5111048;28;20279;-83
2021/07/25 07:50:43;;;;;;;1.47;1.10;;;24.10;99.90;;;;;;5112557;28;20204;-83
2021/07/25 07:53:09;;;;;;;1.07;1.07;;;24.10;99.90;;;;;;5096436;28;20180;-83
2021/07/25 07:55:35;;;;;;;1.20;1.13;;;24.30;99.90;;;;;;5092206;28;20286;-83
2021/07/25 07:58:00;;;;;;;0.50;0.50;;;24.20;99.90;;;;;;5107527;28;20561;-83
2021/07/25 08:00:26;;;;;;;0.80;0.80;;;23.90;99.90;;;;;;5092097;28;20264;-83
2021/07/25 08:02:52;;;;;;;1.03;0.83;;;24.10;99.90;;;;;;5092464;28;20190;-83
2021/07/25 08:05:18;;;;;;;0.93;0.80;;;24.10;99.90;;;;;;5091978;28;20204;-83
2021/07/25 08:07:44;;;;;;;0.80;0.70;;;23.90;99.90;;;;;;5107538;28;20205;-83
2021/07/25 08:10:10;;;;;;;0.80;0.80;;;24.30;99.90;;;;;;5090673;28;20280;-83
2021/07/25 08:12:37;;;;;;;1.00;1.00;;;24.40;99.90;;;;;;5090492;28;20188;-83
2021/07/25 08:15:03;;;;;;;1.13;1.07;;;24.20;99.90;;;;;;5108056;28;20184;-83
2021/07/25 08:17:29;;;;;;;1.20;1.10;;;23.90;99.90;;;;;;5107671;28;20652;-83
2021/07/25 08:19:54;;;;;;;0.77;0.77;;;23.90;99.90;;;;;;5092276;28;20211;-83
2021/07/25 08:22:20;;;;;;;0.70;0.63;;;24.20;99.90;;;;;;5090599;28;20197;-83
2021/07/25 08:24:46;;;;;;;1.70;0.73;;;24.60;99.90;;;;;;5091943;28;20247;-83
2021/07/25 08:27:12;;;;;;;1.10;0.60;;;25.00;99.90;;;;;;5091896;28;20176;-83
2021/07/25 08:29:38;;;;;;;1.30;0.90;;;25.00;99.90;;;;;;5091446;28;20265;-84
2021/07/25 08:32:04;;;;;;;1.23;1.00;;;24.80;99.90;;;;;;5091801;28;20184;-83
2021/07/25 08:34:30;;;;;;;0.60;0.60;;;24.90;99.90;;;;;;5091472;28;20192;-83
2021/07/25 08:36:56;;;;;;;1.03;0.93;;;24.90;99.90;;;;;;5107867;28;20656;-84
2021/07/25 08:39:21;;;;;;;1.33;0.97;;;25.10;99.90;;;;;;5093106;28;20211;-83
2021/07/25 08:41:47;;;;;;;0.83;0.83;;;25.50;99.90;;;;;;5095797;28;20546;-83
2021/07/25 08:44:27;;;;;;;1.17;1.00;;;25.90;99.90;;;;;;5095744;28;20519;-83
2021/07/25 08:46:55;;;;;;;0.43;0.43;;;26.10;99.90;;;;;;5110797;28;20188;-84
2021/07/25 08:49:33;;;;;;;1.30;0.70;;;26.00;99.90;;;;;;5118973;28;20203;-83
2021/07/25 08:51:59;;;;;;;0.60;0.60;;;26.20;99.90;;;;;;5108867;28;20223;-83
2021/07/25 08:54:28;;;;;;;0.53;0.47;;;26.20;99.90;;;;;;5102545;28;20185;-83
2021/07/25 08:56:59;;;;;;;1.17;0.47;;;26.10;99.90;;;;;;5107971;28;20195;-83
2021/07/25 08:59:29;;;;;;;1.13;0.70;;;26.00;99.90;;;;;;5114596;28;20199;-83
2021/07/25 09:01:58;;;;;;;0.87;0.60;;;26.00;99.90;;;;;;5115934;28;20224;-83
2021/07/25 09:04:24;;;;;;;0.80;0.80;;;25.70;99.90;;;;;;5117677;28;20184;-83
2021/07/25 09:06:51;;;;;;;1.13;0.67;;;25.70;99.90;;;;;;5115355;28;20195;-83
2021/07/25 09:09:18;;;;;;;1.30;0.80;;;25.80;99.90;;;;;;5100376;28;20703;-83
2021/07/25 09:11:46;;;;;;;0.53;0.53;;;25.70;99.90;;;;;;5096858;28;20180;-83
2021/07/25 09:14:12;;;;;;;0.80;0.80;;;26.10;99.90;;;;;;5112170;28;20181;-83
2021/07/25 09:16:37;;;;;;;0.40;0.40;;;26.30;99.90;;;;;;5097322;28;20245;-83
2021/07/25 09:19:04;;;;;;;3.07;0.90;;;26.60;99.90;;;;;;5111535;28;20584;-83
2021/07/25 09:21:35;;;;;;;0.50;0.50;;;26.50;99.90;;;;;;5098641;28;20212;-84
2021/07/25 09:24:21;;;;;;;1.90;1.23;;;26.60;99.90;;;;;;5100860;28;20196;-83
2021/07/25 09:26:54;;;;;;;0.67;0.67;;;26.40;99.90;;;;;;5113462;28;20178;-84
2021/07/25 09:29:33;;;;;;;0.97;0.97;;;26.80;99.90;;;;;;5092929;28;20287;-83
2021/07/25 09:32:15;;;;;;;0.70;0.70;;;26.60;99.90;;;;;;5094767;28;20199;-83
2021/07/25 09:34:48;;;;;;;0.60;0.60;;;26.20;99.90;;;;;;5110801;28;20271;-83
2021/07/25 09:37:15;;;;;;;1.23;0.90;;;25.90;99.90;;;;;;5109735;28;20188;-84
2021/07/25 09:39:43;;;;;;;0.73;0.73;;;26.10;99.90;;;;;;5109988;28;20618;-83
2021/07/25 09:42:10;;;;;;;1.43;1.10;;;26.10;99.90;;;;;;5094621;28;20188;-83
2021/07/25 09:44:49;;;;;;;0.77;0.70;;;26.30;99.90;;;;;;5110442;28;20185;-83
2021/07/25 09:47:33;;;;;;;0.87;0.70;;;26.60;99.90;;;;;;5094402;28;20180;-83
2021/07/25 09:50:02;;;;;;;0.57;0.57;;;27.00;99.90;;;;;;5094351;28;20293;-83
2021/07/25 09:52:36;;;;;;;1.57;0.90;;;27.40;99.90;;;;;;5094472;28;20183;-84
2021/07/25 09:55:04;;;;;;;1.33;0.97;;;27.70;99.90;;;;;;5094563;28;20215;-84
2021/07/25 09:57:30;;;;;;;0.77;0.73;;;27.90;99.90;;;;;;5110161;28;20228;-84
2021/07/25 09:59:58;;;;;;;1.53;1.13;;;28.10;99.90;;;;;;5102854;28;20468;-84
2021/07/25 10:02:33;;;;;;;2.23;0.97;;;28.10;99.90;;;;;;5081716;28;20188;-84
2021/07/25 10:05:08;;;;;;;0.77;0.77;;;28.10;99.90;;;;;;5086674;28;20199;-86
2021/07/25 10:07:34;;;;;;;1.13;1.03;;;27.90;99.90;;;;;;5090563;28;20173;-86
2021/07/25 10:10:00;;;;;;;0.63;0.63;;;27.70;99.90;;;;;;5093263;28;20239;-85
2021/07/25 10:12:34;;;;;;;1.13;1.07;;;27.70;99.90;;;;;;5092815;28;20204;-86
2021/07/25 10:15:04;;;;;;;0.80;0.80;;;27.70;99.90;;;;;;5085870;28;20210;-87
2021/07/25 10:17:35;;;;;;;0.73;0.73;;;27.50;99.90;;;;;;5078876;28;20188;-86
2021/07/25 10:20:02;;;;;;;0.77;0.77;;;27.80;99.90;;;;;;5088451;28;20205;-85
2021/07/25 10:22:30;;;;;;;0.70;0.60;;;27.90;99.90;;;;;;5095198;28;20227;-85
2021/07/25 10:25:02;;;;;;;2.47;1.27;;;28.30;99.90;;;;;;5108015;28;20261;-85
2021/07/25 10:27:31;;;;;;;0.73;0.73;;;27.80;99.90;;;;;;5089288;28;20660;-88
2021/07/25 10:30:02;;;;;;;1.20;1.03;;;27.00;99.90;;;;;;5092640;28;20200;-88
2021/07/25 10:32:31;;;;;;;1.23;1.00;;;27.70;99.90;;;;;;5091771;28;20187;-88
2021/07/25 10:34:59;;;;;;;0.90;0.90;;;27.50;99.90;;;;;;5100584;28;20185;-88
2021/07/25 10:37:26;;;;;;;1.13;0.90;;;27.70;99.90;;;;;;5093734;28;20318;-88
2021/07/25 10:39:54;;;;;;;0.63;0.63;;;28.10;99.90;;;;;;5086946;28;20715;-88
2021/07/25 10:42:26;;;;;;;0.63;0.57;;;28.50;99.90;;;;;;5092164;28;20204;-88
2021/07/25 10:44:52;;;;;;;1.43;1.33;;;28.90;99.90;;;;;;5091332;28;20204;-89
2021/07/25 10:47:25;;;;;;;0.83;0.83;;;28.70;99.90;;;;;;5101494;28;20544;-88
2021/07/25 10:50:09;;;;;;;0.70;0.70;;;28.70;99.90;;;;;;5107516;27;20257;-89
2021/07/25 10:52:52;;;;;;;0.30;0.30;;;28.80;99.90;;;;;;5092272;28;20177;-88
2021/07/25 10:55:45;;;;;;;0.70;0.70;;;29.00;99.90;;;;;;5099429;28;20192;-87
2021/07/25 10:58:19;;;;;;;1.45;1.13;;;29.10;99.90;;;;;;5085855;28;20552;-87
2021/07/25 11:00:51;;;;;;;0.35;0.35;;;28.90;99.90;;;;;;5097484;28;20222;-87
2021/07/25 11:03:29;;;;;;;0.70;0.70;;;27.50;99.90;;;;;;5092279;28;20180;-87
2021/07/25 11:06:12;;;;;;;1.10;1.07;;;27.10;99.90;;;;;;5088882;28;20204;-88
2021/07/25 11:08:46;;;;;;;0.93;0.70;;;27.80;99.90;;;;;;5104639;27;20176;-87
2021/07/25 11:11:34;;;;;;;0.88;0.88;;;28.00;99.90;;;;;;5097590;28;20544;-88
2021/07/25 11:14:01;;;;;;;0.77;0.77;;;28.50;99.90;;;;;;5089688;28;20661;-88
2021/07/25 11:16:30;;;;;;;0.77;0.77;;;28.70;99.90;;;;;;5099979;28;20233;-88
2021/07/25 11:19:11;;;;;;;1.40;1.27;;;28.90;99.90;;;;;;5086055;28;20200;-87
2021/07/25 11:21:41;;;;;;;3.03;1.30;;;29.10;99.90;;;;;;5100578;28;20184;-86
2021/07/25 11:24:18;;;;;;;6.82;1.13;;;29.10;99.90;;;;;;5095855;28;20192;-87
2021/07/25 11:26:54;;;;;;;0.50;0.50;;;29.30;99.90;;;;;;5098959;28;20294;-87
2021/07/25 11:29:22;;;;;;;1.00;0.90;;;29.50;99.90;;;;;;5095411;28;20206;-88
2021/07/25 11:31:50;;;;;;;0.85;0.70;;;29.10;99.90;;;;;;5098273;28;20188;-88
2021/07/25 11:34:27;;;;;;;1.88;0.75;;;29.50;99.90;;;;;;5091584;28;20195;-88
2021/07/25 11:36:54;;;;;;;1.17;0.60;;;29.60;99.90;;;;;;5087376;28;20652;-87
2021/07/25 11:39:20;;;;;;;1.02;0.70;;;29.50;99.90;;;;;;5095688;28;20640;-88
2021/07/25 11:41:47;;;;;;;1.10;0.73;;;29.60;99.90;;;;;;5106585;28;20267;-87
2021/07/25 11:44:13;;;;;;;1.00;0.63;;;29.70;99.90;;;;;;5107542;28;20180;-87
2021/07/25 11:46:39;;;;;;;1.73;0.38;;;29.80;99.90;;;;;;5107539;28;20209;-87
2021/07/25 11:49:04;;;;;;;0.85;0.85;;;30.00;99.90;;;;;;5090755;28;20191;-88
2021/07/25 11:51:30;;;;;;;0.80;0.80;;;30.00;99.90;;;;;;5105479;28;20192;-87
2021/07/25 11:53:57;;;;;;;0.50;0.50;;;29.90;99.90;;;;;;5094738;28;20272;-87
2021/07/25 11:56:22;;;;;;;0.52;0.52;;;29.50;99.90;;;;;;5090640;28;20188;-86
2021/07/25 11:59:03;;;;;;;0.75;0.63;;;29.20;99.90;;;;;;5098407;28;20197;-87
2021/07/25 12:01:29;;;;;;;1.45;0.57;;;29.40;99.90;;;;;;5105631;28;20666;-86
2021/07/25 12:03:54;;;;;;;0.43;0.43;;;29.60;99.90;;;;;;5092108;28;20184;-87
2021/07/25 12:06:20;;;;;;;1.15;0.73;;;29.80;99.90;;;;;;5088394;28;20736;-86
2021/07/25 12:09:22;;;;;;;0.52;0.52;;;30.00;99.90;;;;;;5098439;28;20185;-87
2021/07/25 12:11:48;;;;;;;0.68;0.68;;;29.90;99.90;;;;;;5024127;28;20843;-87
2021/07/25 12:14:13;;;;;;;0.40;0.40;;;30.10;99.90;;;;;;5076143;28;20246;-87
2021/07/25 12:16:47;;;;;;;0.20;0.20;;;30.20;99.90;;;;;;5087327;28;20184;-87
2021/07/25 12:19:18;;;;;;;1.20;0.65;;;30.50;99.90;;;;;;5095633;28;20317;-87
2021/07/25 12:21:45;;;;;;;1.15;0.90;;;30.70;99.90;;;;;;5101187;28;20188;-86
2021/07/25 12:24:27;;;;;;;1.38;0.35;;;30.40;99.90;;;;;;5104568;28;20191;-87
2021/07/25 12:26:53;;;;;;;0.85;0.60;;;30.60;99.90;;;;;;5106073;28;20187;-86
2021/07/25 12:29:37;;;;;;;0.82;0.82;;;30.70;99.90;;;;;;5111491;28;20288;-86
2021/07/25 12:32:38;;;;;;;0.20;0.20;;;30.30;99.90;;;;;;5101084;28;20200;-87
2021/07/25 12:35:13;;;;;;;0.52;0.52;;;29.70;99.90;;;;;;5043728;28;20196;-86
2021/07/25 12:37:51;;;;;;;0.45;0.45;;;29.80;99.90;;;;;;5087404;28;20236;-87
2021/07/25 12:40:26;;;;;;;0.30;0.30;;;29.60;99.90;;;;;;5099897;28;20295;-87
2021/07/25 12:42:58;;;;;;;1.88;0.30;;;29.90;99.90;;;;;;5100996;28;20232;-86
2021/07/25 12:45:33;;;;;;;0.32;0.32;;;30.30;99.90;;;;;;5091885;28;20212;-87
2021/07/25 12:48:15;;;;;;;0.22;0.22;;;30.50;99.90;;;;;;5110735;28;20190;-84
2021/07/25 12:50:47;;;;;;;0.45;0.45;;;30.60;99.90;;;;;;5093510;28;20197;-84
2021/07/25 12:53:21;;;;;;;0.40;0.40;;;30.70;99.90;;;;;;5090391;28;20185;-84
2021/07/25 12:55:48;;;;;;;0.30;0.30;;;30.50;99.90;;;;;;5091774;28;20185;-85